Time;durP1;ratioP1;P1;durP2;ratioP2;P2;SDS_P1;SDS_P2;PMS_P1;PMS_P2;Temp;Humidity;BMP_temperature;BMP_pressure;BME280_temperature;BME280_humidity;BME280_pressure;Samples;Min_cycle;Max_cycle;Signal;HPM_P1;HPM_P2
2021/07/30 00:02:14;;;;;;;6.22;3.30;;;18.40;99.90;;;;;;4991801;28;20405;-85
2021/07/30 00:04:40;;;;;;;3.10;2.80;;;18.40;99.90;;;;;;4991299;28;20128;-87
2021/07/30 00:07:06;;;;;;;4.78;3.05;;;18.40;99.90;;;;;;4973781;28;20128;-87
2021/07/30 00:09:31;;;;;;;4.07;3.15;;;18.40;99.90;;;;;;4973277;28;20379;-84
2021/07/30 00:11:57;;;;;;;6.35;3.10;;;18.40;99.90;;;;;;4991677;28;20496;-84
2021/07/30 00:14:23;;;;;;;5.32;3.30;;;18.40;99.90;;;;;;4991103;28;20030;-83
2021/07/30 00:16:48;;;;;;;3.53;3.22;;;18.50;99.90;;;;;;4990123;28;20030;-88
2021/07/30 00:19:14;;;;;;;6.07;3.30;;;18.60;99.90;;;;;;4990854;28;20098;-84
2021/07/30 00:21:40;;;;;;;5.80;3.25;;;18.60;99.90;;;;;;4991010;28;20034;-83
2021/07/30 00:24:05;;;;;;;5.90;3.40;;;18.50;99.90;;;;;;4991883;28;20501;-83
2021/07/30 00:26:31;;;;;;;3.60;3.30;;;18.50;99.90;;;;;;4991504;28;20055;-87
2021/07/30 00:28:56;;;;;;;8.30;3.72;;;18.50;99.90;;;;;;4991509;28;20374;-87
2021/07/30 00:31:22;;;;;;;4.95;3.40;;;18.60;99.90;;;;;;4991488;28;20057;-84
2021/07/30 00:33:48;;;;;;;3.90;3.28;;;18.60;99.90;;;;;;4989888;28;20030;-82
2021/07/30 00:36:14;;;;;;;5.53;3.38;;;18.50;99.90;;;;;;4992057;28;20076;-83
2021/07/30 00:38:40;;;;;;;6.55;3.72;;;18.60;99.90;;;;;;5009572;28;20026;-84
2021/07/30 00:41:06;;;;;;;7.78;3.35;;;18.60;99.90;;;;;;5010853;28;20122;-87
2021/07/30 00:43:32;;;;;;;6.82;3.17;;;18.60;99.90;;;;;;5009130;28;20033;-86
2021/07/30 00:45:59;;;;;;;7.75;3.40;;;18.50;99.90;;;;;;5010869;28;20112;-87
2021/07/30 00:48:25;;;;;;;5.60;3.67;;;18.50;99.90;;;;;;4992058;28;20121;-83
2021/07/30 00:50:52;;;;;;;6.53;3.17;;;18.50;99.90;;;;;;5010718;28;20030;-83
2021/07/30 00:53:18;;;;;;;4.63;2.90;;;18.60;99.90;;;;;;4993226;28;20026;-87
2021/07/30 00:55:46;;;;;;;7.22;3.10;;;18.60;99.90;;;;;;5010043;28;20030;-87
2021/07/30 00:58:13;;;;;;;4.00;2.70;;;18.60;99.90;;;;;;5009701;28;20025;-87
2021/07/30 01:00:40;;;;;;;7.10;3.20;;;18.60;99.90;;;;;;5010944;28;20394;-88
2021/07/30 01:03:05;;;;;;;4.65;3.20;;;18.50;99.90;;;;;;5010299;28;20526;-82
2021/07/30 01:05:32;;;;;;;5.90;3.60;;;18.50;99.90;;;;;;5010618;28;20064;-87
2021/07/30 01:07:58;;;;;;;3.88;3.10;;;18.50;99.90;;;;;;5013903;28;20528;-83
2021/07/30 01:10:24;;;;;;;7.50;3.22;;;18.60;99.90;;;;;;5012952;28;20477;-87
2021/07/30 01:12:50;;;;;;;3.78;3.10;;;18.60;99.90;;;;;;5014535;28;20019;-88
2021/07/30 01:15:15;;;;;;;4.32;3.05;;;18.50;99.90;;;;;;5013855;28;20026;-87
2021/07/30 01:17:41;;;;;;;8.55;3.80;;;18.50;99.90;;;;;;5013429;28;20030;-82
2021/07/30 01:20:10;;;;;;;7.90;3.03;;;18.60;99.90;;;;;;5013771;28;20030;-87
2021/07/30 01:22:56;;;;;;;4.93;2.80;;;18.60;99.90;;;;;;5013698;28;20105;-87
2021/07/30 01:25:24;;;;;;;8.18;3.25;;;18.60;99.90;;;;;;5014417;28;20033;-88
2021/07/30 01:27:50;;;;;;;9.13;2.72;;;18.70;99.90;;;;;;4995865;28;20026;-83
2021/07/30 01:30:18;;;;;;;5.97;3.10;;;18.70;99.90;;;;;;4995952;28;20405;-84
2021/07/30 01:32:44;;;;;;;4.93;2.97;;;18.70;99.90;;;;;;5013065;28;20442;-83
2021/07/30 01:35:10;;;;;;;7.70;3.30;;;18.60;99.90;;;;;;5012716;28;20108;-87
2021/07/30 01:37:36;;;;;;;4.28;2.83;;;18.60;99.90;;;;;;5013246;28;20097;-85
2021/07/30 01:40:03;;;;;;;4.97;2.90;;;18.60;99.90;;;;;;5013597;28;20034;-83
2021/07/30 01:42:29;;;;;;;5.15;3.15;;;18.70;99.90;;;;;;5013357;28;20085;-82
2021/07/30 01:44:55;;;;;;;4.40;2.58;;;18.70;99.90;;;;;;5012879;28;20068;-88
2021/07/30 01:47:21;;;;;;;3.88;2.85;;;18.70;99.90;;;;;;5013212;28;20038;-87
2021/07/30 01:49:48;;;;;;;7.20;3.35;;;18.70;99.90;;;;;;5012998;28;20080;-83
2021/07/30 01:52:14;;;;;;;6.57;3.20;;;18.70;99.90;;;;;;5013503;28;20029;-83
2021/07/30 01:54:40;;;;;;;7.32;3.40;;;18.70;99.90;;;;;;5013201;28;20029;-87
2021/07/30 01:57:06;;;;;;;4.85;3.10;;;18.70;99.90;;;;;;5013068;28;20394;-83
2021/07/30 01:59:31;;;;;;;6.45;2.97;;;18.70;99.90;;;;;;5013382;28;20033;-88
2021/07/30 02:01:58;;;;;;;6.82;3.35;;;18.80;99.90;;;;;;5012698;28;20022;-87
2021/07/30 02:04:23;;;;;;;7.57;3.70;;;18.80;99.90;;;;;;4995085;28;20131;-88
2021/07/30 02:06:49;;;;;;;8.95;3.17;;;18.80;99.90;;;;;;5013132;28;20117;-83
2021/07/30 02:09:15;;;;;;;4.93;3.40;;;18.90;99.90;;;;;;5012399;28;20120;-82
2021/07/30 02:11:41;;;;;;;4.40;3.13;;;18.90;99.90;;;;;;4995417;28;20556;-86
2021/07/30 02:14:17;;;;;;;9.70;3.60;;;18.90;99.90;;;;;;5012465;28;20022;-87
2021/07/30 02:16:51;;;;;;;4.90;3.20;;;18.80;99.90;;;;;;5012639;28;20026;-87
2021/07/30 02:19:18;;;;;;;6.30;3.55;;;18.90;99.90;;;;;;5011820;28;20455;-83
2021/07/30 02:21:45;;;;;;;6.80;3.80;;;18.90;99.90;;;;;;5012432;28;20383;-83
2021/07/30 02:24:11;;;;;;;6.40;3.85;;;18.90;99.90;;;;;;4994789;28;20037;-86
2021/07/30 02:26:37;;;;;;;8.25;3.70;;;18.90;99.90;;;;;;4995372;28;20034;-81
2021/07/30 02:29:03;;;;;;;4.47;2.92;;;18.90;99.90;;;;;;4994613;28;20034;-82
2021/07/30 02:31:29;;;;;;;6.88;3.38;;;18.90;99.90;;;;;;5012515;28;20064;-88
2021/07/30 02:33:55;;;;;;;5.95;3.28;;;18.90;99.90;;;;;;5011621;28;20048;-87
2021/07/30 02:36:22;;;;;;;7.88;2.95;;;18.90;99.90;;;;;;5011246;28;20030;-87
2021/07/30 02:38:48;;;;;;;4.38;3.30;;;18.90;99.90;;;;;;4994780;28;20401;-83
2021/07/30 02:41:16;;;;;;;7.28;3.35;;;18.90;99.90;;;;;;5011637;28;20114;-87
2021/07/30 02:43:42;;;;;;;6.70;3.60;;;18.90;99.90;;;;;;5011625;28;20038;-87
2021/07/30 02:46:07;;;;;;;7.25;3.40;;;18.90;99.90;;;;;;5011714;28;20041;-82
2021/07/30 02:48:33;;;;;;;9.27;3.75;;;19.00;99.90;;;;;;4993712;28;20060;-87
2021/07/30 02:50:59;;;;;;;8.77;3.42;;;19.10;99.90;;;;;;5012250;28;20033;-87
2021/07/30 02:53:24;;;;;;;9.93;3.85;;;19.10;99.90;;;;;;5011922;28;20385;-83
2021/07/30 02:55:50;;;;;;;9.25;3.50;;;19.20;99.90;;;;;;5012202;28;20489;-88
2021/07/30 02:58:16;;;;;;;7.97;3.70;;;19.20;99.90;;;;;;5012156;28;20111;-88
2021/07/30 03:00:41;;;;;;;10.63;3.97;;;19.10;99.90;;;;;;5012262;28;20028;-88
2021/07/30 03:03:07;;;;;;;7.65;4.25;;;19.10;99.90;;;;;;4994310;28;20030;-87
2021/07/30 03:05:33;;;;;;;9.48;3.42;;;19.00;99.90;;;;;;5012016;28;20030;-87
2021/07/30 03:07:58;;;;;;;9.45;3.80;;;19.00;99.90;;;;;;5011757;28;20057;-86
2021/07/30 03:10:24;;;;;;;11.43;3.67;;;19.00;99.90;;;;;;5011788;28;20022;-83
2021/07/30 03:12:50;;;;;;;6.40;3.92;;;19.00;99.90;;;;;;5011731;28;20080;-82
2021/07/30 03:15:16;;;;;;;5.47;3.50;;;19.00;99.90;;;;;;5011588;28;20033;-87
2021/07/30 03:17:41;;;;;;;6.82;4.18;;;19.00;99.90;;;;;;4992855;28;20444;-87
2021/07/30 03:20:07;;;;;;;9.13;4.18;;;19.10;99.90;;;;;;4993822;28;20030;-88
2021/07/30 03:22:34;;;;;;;8.93;3.95;;;19.10;99.90;;;;;;4993880;28;20412;-87
2021/07/30 03:24:59;;;;;;;9.75;3.80;;;19.10;99.90;;;;;;5011698;28;20028;-82
2021/07/30 03:27:26;;;;;;;5.95;3.78;;;19.00;99.90;;;;;;4990510;28;20042;-87
2021/07/30 03:29:52;;;;;;;11.27;3.63;;;19.10;99.90;;;;;;4974305;28;20033;-87
2021/07/30 03:32:18;;;;;;;5.85;3.67;;;19.00;99.90;;;;;;4992219;28;20482;-82
2021/07/30 03:34:45;;;;;;;4.85;3.55;;;19.00;99.90;;;;;;5002070;28;20060;-88
2021/07/30 03:37:12;;;;;;;7.28;3.65;;;19.00;99.90;;;;;;5009917;28;20050;-87
2021/07/30 03:39:37;;;;;;;6.18;3.40;;;19.00;99.90;;;;;;5011628;28;20026;-82
2021/07/30 03:42:04;;;;;;;5.57;3.28;;;19.00;99.90;;;;;;5010834;28;20057;-83
2021/07/30 03:44:29;;;;;;;7.88;3.70;;;19.10;99.90;;;;;;5010892;28;20049;-88
2021/07/30 03:46:55;;;;;;;12.05;3.80;;;19.10;99.90;;;;;;5011595;28;20109;-82
2021/07/30 03:49:21;;;;;;;12.73;4.30;;;19.10;99.90;;;;;;5010971;28;20497;-82
2021/07/30 03:51:46;;;;;;;6.85;4.05;;;19.20;99.90;;;;;;5011305;28;20018;-82
2021/07/30 03:54:12;;;;;;;7.95;3.58;;;19.20;99.90;;;;;;5010927;28;20022;-88
2021/07/30 03:56:39;;;;;;;9.10;4.32;;;19.20;99.90;;;;;;5011185;28;20036;-87
2021/07/30 03:59:05;;;;;;;11.07;3.92;;;19.30;99.90;;;;;;4993643;28;20080;-86
2021/07/30 04:01:31;;;;;;;4.43;3.60;;;19.30;99.90;;;;;;5011223;28;20120;-88
2021/07/30 04:03:56;;;;;;;11.10;3.75;;;19.30;99.90;;;;;;5010867;28;20040;-82
2021/07/30 04:06:22;;;;;;;5.85;3.20;;;19.20;99.90;;;;;;4993002;28;20030;-83
2021/07/30 04:08:47;;;;;;;10.43;3.72;;;19.10;99.90;;;;;;5010674;28;20033;-82
2021/07/30 04:11:13;;;;;;;7.78;3.13;;;19.10;99.90;;;;;;5009247;28;20073;-83
2021/07/30 04:13:39;;;;;;;5.68;3.20;;;19.20;99.90;;;;;;5009337;28;20087;-89
2021/07/30 04:16:06;;;;;;;8.90;3.33;;;19.20;99.90;;;;;;5010667;28;20051;-83
2021/07/30 04:18:32;;;;;;;7.40;3.28;;;19.20;99.90;;;;;;5010348;28;20100;-83
2021/07/30 04:20:58;;;;;;;5.85;3.40;;;19.20;99.90;;;;;;5010779;28;20029;-88
2021/07/30 04:23:24;;;;;;;9.57;3.47;;;19.20;99.90;;;;;;5007536;28;20034;-82
2021/07/30 04:25:50;;;;;;;8.02;4.03;;;19.20;99.90;;;;;;5008397;28;20033;-88
2021/07/30 04:28:15;;;;;;;10.80;3.67;;;19.30;99.90;;;;;;5010663;28;20168;-83
2021/07/30 04:30:41;;;;;;;10.80;3.38;;;19.30;99.90;;;;;;5010659;28;20022;-88
2021/07/30 04:33:09;;;;;;;9.05;3.70;;;19.30;99.90;;;;;;5010477;28;20045;-83
2021/07/30 04:35:36;;;;;;;7.18;3.13;;;19.40;99.90;;;;;;5010547;28;20022;-87
2021/07/30 04:38:02;;;;;;;5.40;3.20;;;19.40;99.90;;;;;;5008814;28;20499;-83
2021/07/30 04:40:28;;;;;;;11.48;3.17;;;19.50;99.90;;;;;;5010534;28;20057;-89
2021/07/30 04:43:00;;;;;;;4.82;2.72;;;19.50;99.90;;;;;;4996213;28;20505;-82
2021/07/30 04:45:26;;;;;;;4.80;3.08;;;19.50;99.90;;;;;;5013819;28;20030;-81
2021/07/30 04:47:52;;;;;;;13.60;3.10;;;19.50;99.90;;;;;;5013994;28;20029;-88
2021/07/30 04:50:18;;;;;;;8.48;3.13;;;19.60;99.90;;;;;;4996888;28;20113;-90
2021/07/30 04:52:43;;;;;;;6.45;3.25;;;19.60;99.90;;;;;;4996669;28;20121;-84
2021/07/30 04:55:09;;;;;;;6.80;3.38;;;19.60;99.90;;;;;;5014323;28;20488;-82
2021/07/30 04:57:35;;;;;;;6.22;3.65;;;19.60;99.90;;;;;;5013945;28;20022;-86
2021/07/30 05:00:01;;;;;;;10.40;3.65;;;19.60;99.90;;;;;;5012015;28;20033;-87
2021/07/30 05:02:26;;;;;;;10.93;3.58;;;19.60;99.90;;;;;;5014383;28;20034;-87
2021/07/30 05:04:56;;;;;;;5.38;3.08;;;19.60;99.90;;;;;;5014031;28;20033;-87
2021/07/30 05:07:22;;;;;;;13.38;4.78;;;19.70;99.90;;;;;;5014116;28;20153;-82
2021/07/30 05:09:48;;;;;;;6.30;3.72;;;19.70;99.90;;;;;;4994253;28;20447;-83
2021/07/30 05:12:13;;;;;;;13.98;4.03;;;19.70;99.90;;;;;;5012805;28;20170;-88
2021/07/30 05:14:39;;;;;;;5.70;3.53;;;19.70;99.90;;;;;;5014286;28;20028;-87
2021/07/30 05:17:05;;;;;;;7.45;3.63;;;19.70;99.90;;;;;;5013407;28;20033;-89
2021/07/30 05:19:30;;;;;;;9.13;3.70;;;19.70;99.90;;;;;;5011794;28;20111;-83
2021/07/30 05:21:56;;;;;;;12.27;3.65;;;19.70;99.90;;;;;;5013110;28;20092;-85
2021/07/30 05:24:22;;;;;;;8.85;3.33;;;19.70;99.90;;;;;;5014117;28;20108;-88
2021/07/30 05:26:47;;;;;;;15.57;4.53;;;19.80;99.90;;;;;;5000967;28;20041;-88
2021/07/30 05:29:13;;;;;;;13.50;3.50;;;19.80;99.90;;;;;;4977080;28;20026;-86
2021/07/30 05:31:38;;;;;;;9.05;3.22;;;19.80;99.90;;;;;;4993670;28;20540;-83
2021/07/30 05:34:04;;;;;;;9.07;3.22;;;19.70;99.90;;;;;;4998197;28;20068;-83
2021/07/30 05:36:30;;;;;;;17.77;4.10;;;19.70;99.90;;;;;;4995673;28;20512;-83
2021/07/30 05:38:55;;;;;;;12.57;3.63;;;19.80;99.90;;;;;;5009906;28;20036;-87
2021/07/30 05:41:22;;;;;;;12.48;3.60;;;19.80;99.90;;;;;;5013230;28;20046;-86
2021/07/30 05:43:49;;;;;;;9.88;3.78;;;19.80;99.90;;;;;;5013021;28;20125;-87
2021/07/30 05:46:18;;;;;;;28.48;5.50;;;19.80;99.90;;;;;;5013130;28;20390;-88
2021/07/30 05:48:45;;;;;;;16.75;4.03;;;19.80;99.90;;;;;;5012684;28;20089;-87
2021/07/30 05:51:11;;;;;;;15.90;4.60;;;19.80;99.90;;;;;;5012874;28;20040;-83
2021/07/30 05:53:40;;;;;;;13.60;3.75;;;19.90;99.90;;;;;;5011200;28;20030;-86
2021/07/30 05:56:06;;;;;;;16.50;3.95;;;19.90;99.90;;;;;;5013007;28;20485;-87
2021/07/30 05:58:33;;;;;;;14.00;4.45;;;19.90;99.90;;;;;;4995165;28;20022;-88
2021/07/30 06:00:59;;;;;;;19.15;4.38;;;19.90;99.90;;;;;;4994046;28;20026;-82
2021/07/30 06:03:24;;;;;;;15.93;4.38;;;19.90;99.90;;;;;;5011358;28;20026;-82
2021/07/30 06:05:50;;;;;;;14.02;4.88;;;19.90;99.90;;;;;;5011648;28;20030;-84
2021/07/30 06:08:16;;;;;;;17.38;4.93;;;19.90;99.90;;;;;;5010388;28;20030;-86
2021/07/30 06:10:42;;;;;;;17.67;5.10;;;19.90;99.90;;;;;;5012411;28;20105;-85
2021/07/30 06:13:08;;;;;;;9.80;4.35;;;20.00;99.90;;;;;;5012394;28;20049;-83
2021/07/30 06:15:34;;;;;;;22.73;4.68;;;20.00;99.90;;;;;;4993090;28;20054;-85
2021/07/30 06:18:02;;;;;;;14.00;4.40;;;20.00;99.90;;;;;;5011178;28;20033;-86
2021/07/30 06:20:28;;;;;;;17.17;4.47;;;20.00;99.90;;;;;;5010845;28;20456;-87
2021/07/30 06:22:54;;;;;;;16.50;4.47;;;20.00;99.90;;;;;;5010176;28;20026;-86
2021/07/30 06:25:20;;;;;;;12.57;4.20;;;19.90;99.90;;;;;;5010557;28;20087;-82
2021/07/30 06:27:45;;;;;;;16.23;4.93;;;20.00;99.90;;;;;;5010420;28;20489;-83
2021/07/30 06:30:12;;;;;;;14.93;4.85;;;20.00;99.90;;;;;;5010217;28;20037;-86
2021/07/30 06:32:38;;;;;;;24.75;5.10;;;20.00;99.90;;;;;;5010529;28;20022;-85
2021/07/30 06:35:06;;;;;;;15.68;3.40;;;20.10;99.90;;;;;;5011232;28;20034;-84
2021/07/30 06:37:35;;;;;;;16.63;3.05;;;19.90;99.90;;;;;;5010394;28;20030;-84
2021/07/30 06:40:02;;;;;;;23.85;3.50;;;19.70;99.90;;;;;;5009193;28;20037;-85
2021/07/30 06:42:28;;;;;;;23.13;3.15;;;19.40;99.90;;;;;;4993429;28;20057;-83
2021/07/30 06:44:54;;;;;;;20.13;3.53;;;19.30;99.90;;;;;;5007558;28;20030;-84
2021/07/30 06:47:21;;;;;;;17.23;4.10;;;19.20;99.90;;;;;;5006754;28;20737;-83
2021/07/30 06:49:47;;;;;;;29.40;4.53;;;19.10;99.90;;;;;;4989605;28;20810;-84
2021/07/30 06:52:13;;;;;;;28.02;4.25;;;19.10;99.90;;;;;;5003216;28;20107;-83
2021/07/30 06:54:38;;;;;;;27.85;4.15;;;19.10;99.90;;;;;;5010090;28;20053;-83
2021/07/30 06:57:04;;;;;;;19.42;3.22;;;19.10;99.90;;;;;;5010786;28;20030;-85
2021/07/30 06:59:30;;;;;;;34.83;3.72;;;19.10;99.90;;;;;;5009983;28;20026;-85
2021/07/30 07:01:56;;;;;;;21.60;3.30;;;19.10;99.90;;;;;;5009885;28;20038;-84
2021/07/30 07:04:22;;;;;;;17.30;3.65;;;19.20;99.90;;;;;;4992487;28;20033;-85
2021/07/30 07:06:48;;;;;;;21.30;3.42;;;19.30;99.90;;;;;;5009718;28;20392;-83
2021/07/30 07:09:17;;;;;;;19.17;3.70;;;19.30;99.90;;;;;;4992293;28;20018;-83
2021/07/30 07:11:43;;;;;;;14.27;3.20;;;19.50;99.90;;;;;;5009425;28;20503;-85
2021/07/30 07:14:09;;;;;;;15.43;3.28;;;19.60;99.90;;;;;;4992748;28;20025;-81
2021/07/30 07:16:35;;;;;;;14.65;2.97;;;19.60;99.90;;;;;;5006702;28;20507;-84
2021/07/30 07:19:00;;;;;;;22.38;3.00;;;19.70;99.90;;;;;;5010492;28;20018;-82
2021/07/30 07:21:26;;;;;;;19.92;2.85;;;19.90;99.90;;;;;;5010200;28;20033;-84
2021/07/30 07:23:52;;;;;;;15.95;3.25;;;19.80;99.90;;;;;;4992138;28;20096;-84
2021/07/30 07:26:21;;;;;;;20.25;3.15;;;19.90;99.90;;;;;;5009692;28;20385;-83
2021/07/30 07:28:46;;;;;;;17.02;3.13;;;20.00;99.90;;;;;;5011801;28;20034;-83
2021/07/30 07:31:12;;;;;;;13.55;2.58;;;20.10;99.90;;;;;;4998584;28;20038;-84
2021/07/30 07:33:38;;;;;;;16.67;2.80;;;20.20;99.90;;;;;;4992082;28;20026;-83
2021/07/30 07:36:04;;;;;;;18.08;2.63;;;20.20;99.90;;;;;;5008741;28;20104;-83
2021/07/30 07:38:30;;;;;;;20.23;2.90;;;20.10;99.90;;;;;;5007918;28;20590;-82
2021/07/30 07:40:56;;;;;;;17.52;2.80;;;19.90;99.90;;;;;;4991084;28;20036;-83
2021/07/30 07:43:21;;;;;;;16.23;2.50;;;19.60;99.90;;;;;;4999010;28;20049;-88
2021/07/30 07:45:47;;;;;;;19.33;3.17;;;19.50;99.90;;;;;;5009138;28;20520;-86
2021/07/30 07:48:13;;;;;;;21.10;4.47;;;19.50;99.90;;;;;;5009561;28;20061;-86
2021/07/30 07:50:39;;;;;;;17.55;3.78;;;19.50;99.90;;;;;;5008816;28;20186;-84
2021/07/30 07:53:15;;;;;;;22.77;3.17;;;19.50;99.90;;;;;;5008792;28;20026;-83
2021/07/30 07:55:41;;;;;;;26.90;3.65;;;19.50;99.90;;;;;;4990864;28;20034;-89
2021/07/30 07:58:06;;;;;;;15.05;2.80;;;19.60;99.90;;;;;;5010047;28;20025;-89
2021/07/30 08:00:32;;;;;;;14.15;2.55;;;19.70;99.90;;;;;;4991479;28;20050;-90
2021/07/30 08:02:58;;;;;;;17.58;2.63;;;19.80;99.90;;;;;;5007626;28;20482;-84
2021/07/30 08:05:23;;;;;;;21.60;3.35;;;19.90;99.90;;;;;;5007545;28;20068;-81
2021/07/30 08:07:49;;;;;;;17.17;3.08;;;20.30;99.90;;;;;;4995425;28;20056;-86
2021/07/30 08:10:15;;;;;;;17.50;2.88;;;20.60;99.90;;;;;;4992547;28;20062;-86
2021/07/30 08:12:40;;;;;;;16.02;2.80;;;20.90;99.90;;;;;;5008616;28;20392;-87
2021/07/30 08:15:07;;;;;;;19.08;2.75;;;20.90;99.90;;;;;;5008196;28;20564;-84
2021/07/30 08:17:37;;;;;;;24.25;3.35;;;20.90;99.90;;;;;;5014570;28;20198;-84
2021/07/30 08:20:04;;;;;;;16.90;2.67;;;20.80;99.90;;;;;;5010213;28;20085;-86
2021/07/30 08:22:30;;;;;;;13.27;2.50;;;22.10;99.90;;;;;;5013605;28;20056;-86
2021/07/30 08:24:55;;;;;;;20.15;3.13;;;23.10;99.90;;;;;;5010834;28;20141;-83
2021/07/30 08:27:21;;;;;;;18.73;3.10;;;24.10;99.90;;;;;;5010189;28;20148;-84
2021/07/30 08:29:47;;;;;;;16.17;3.00;;;23.20;99.90;;;;;;5026443;28;20041;-83
2021/07/30 08:32:12;;;;;;;14.18;2.70;;;22.30;99.90;;;;;;5032630;28;20030;-85
2021/07/30 08:34:39;;;;;;;18.38;2.80;;;23.00;99.90;;;;;;5026733;28;20030;-84
2021/07/30 09:02:33;;;;;;;15.95;3.28;;;22.70;98.40;;;;;;5320256;23;19926;-84
2021/07/30 09:05:19;;;;;;;18.23;2.80;;;21.70;99.90;;;;;;4973973;28;20114;-83
2021/07/30 09:07:45;;;;;;;18.23;2.75;;;21.40;99.90;;;;;;4979549;28;20043;-86
2021/07/30 09:10:10;;;;;;;11.10;2.58;;;21.10;99.90;;;;;;4967345;28;20494;-85
2021/07/30 09:12:36;;;;;;;17.63;2.70;;;21.10;99.90;;;;;;4954794;28;20047;-84
2021/07/30 09:15:20;;;;;;;17.40;2.97;;;20.90;99.90;;;;;;4956063;28;20070;-83
2021/07/30 09:17:46;;;;;;;17.15;3.17;;;21.00;99.90;;;;;;4970744;28;20097;-83
2021/07/30 09:20:12;;;;;;;23.23;2.90;;;21.10;99.90;;;;;;4972420;28;20451;-86
2021/07/30 09:22:48;;;;;;;11.57;2.80;;;21.10;99.90;;;;;;4949616;29;20410;-85
2021/07/30 09:25:31;;;;;;;17.95;2.75;;;21.30;99.90;;;;;;4956366;28;20109;-84
2021/07/30 09:28:04;;;;;;;16.88;3.05;;;21.40;99.90;;;;;;4967864;28;20027;-83
2021/07/30 09:30:30;;;;;;;17.00;3.03;;;21.90;99.90;;;;;;4975094;28;20030;-83
2021/07/30 09:32:57;;;;;;;13.93;2.95;;;22.10;99.90;;;;;;4953919;28;20588;-83
2021/07/30 09:35:22;;;;;;;25.17;2.97;;;22.20;99.80;;;;;;4961684;28;20085;-86
2021/07/30 09:38:14;;;;;;;19.38;3.05;;;22.20;99.90;;;;;;4982844;28;20510;-83
2021/07/30 09:40:40;;;;;;;19.40;3.65;;;22.00;99.70;;;;;;4950882;28;20034;-84
2021/07/30 09:43:22;;;;;;;15.48;3.00;;;24.30;96.90;;;;;;4971206;28;20707;-84
2021/07/30 09:45:48;;;;;;;12.02;2.67;;;26.10;94.70;;;;;;4963878;28;20089;-86
2021/07/30 09:48:14;;;;;;;14.60;3.00;;;27.20;92.30;;;;;;4956219;28;20270;-88
2021/07/30 09:50:40;;;;;;;9.45;2.53;;;27.60;91.50;;;;;;4954840;28;20031;-85
2021/07/30 09:53:06;;;;;;;12.65;2.80;;;26.20;93.00;;;;;;4968050;28;20486;-85
2021/07/30 09:55:35;;;;;;;17.30;2.90;;;27.00;91.80;;;;;;4980887;28;20034;-84
2021/07/30 09:58:02;;;;;;;15.57;3.03;;;26.70;92.10;;;;;;4974178;28;21448;-86
2021/07/30 10:00:31;;;;;;;11.52;3.17;;;27.80;91.40;;;;;;4977036;28;20040;-86
2021/07/30 10:03:00;;;;;;;12.68;3.10;;;27.40;91.10;;;;;;4953774;28;20113;-87
2021/07/30 10:05:27;;;;;;;16.52;3.08;;;28.00;89.80;;;;;;4958646;29;20027;-87
2021/07/30 10:07:53;;;;;;;14.52;4.25;;;26.90;91.20;;;;;;4965796;28;20147;-88
2021/07/30 10:13:09;;;;;;;14.77;4.82;;;28.40;87.40;;;;;;4973646;28;20033;-89
2021/07/30 10:15:34;;;;;;;12.90;3.67;;;29.40;86.80;;;;;;4955990;28;20027;-87
2021/07/30 10:18:04;;;;;;;13.40;3.50;;;30.10;83.80;;;;;;4938247;28;20589;-89
2021/07/30 10:20:30;;;;;;;14.70;3.70;;;29.50;81.80;;;;;;4973570;28;20042;-87
2021/07/30 10:23:03;;;;;;;10.93;3.80;;;28.40;83.60;;;;;;4947606;29;20202;-87
2021/07/30 10:25:35;;;;;;;17.65;4.03;;;27.90;86.00;;;;;;4959140;28;20027;-89
2021/07/30 10:28:20;;;;;;;13.18;4.32;;;29.00;84.20;;;;;;4954291;28;20031;-86
2021/07/30 10:31:07;;;;;;;15.88;4.60;;;28.90;82.80;;;;;;4935305;29;20042;-89
2021/07/30 10:33:37;;;;;;;14.32;5.80;;;28.50;83.40;;;;;;4925862;29;20619;-90
2021/07/30 10:36:04;;;;;;;20.38;4.68;;;29.40;83.80;;;;;;4936799;29;20066;-89
2021/07/30 10:38:30;;;;;;;15.20;4.10;;;30.10;82.70;;;;;;4957461;28;20033;-89
2021/07/30 10:40:55;;;;;;;10.93;3.13;;;29.20;80.80;;;;;;4973293;28;20470;-89
2021/07/30 10:43:22;;;;;;;10.55;3.92;;;29.70;80.70;;;;;;4953812;28;20031;-87
2021/07/30 10:46:12;;;;;;;11.90;3.00;;;30.30;79.00;;;;;;4954566;28;20027;-90
2021/07/30 10:48:39;;;;;;;18.50;4.22;;;27.00;84.90;;;;;;4948839;28;20054;-89
2021/07/30 10:53:47;;;;;;;13.05;3.28;;;25.20;86.60;;;;;;4965425;28;20069;-87
2021/07/30 10:56:18;;;;;;;19.20;7.30;;;25.80;87.90;;;;;;4936521;29;20522;-90
2021/07/30 10:58:44;;;;;;;11.27;3.42;;;27.80;85.10;;;;;;4959867;28;20689;-89
2021/07/30 11:01:10;;;;;;;9.52;2.55;;;28.40;80.60;;;;;;4973022;28;20105;-90
2021/07/30 11:03:58;;;;;;;15.43;3.08;;;28.30;80.80;;;;;;4965456;28;20098;-90
2021/07/30 11:06:24;;;;;;;8.95;2.58;;;29.10;79.00;;;;;;4933417;29;20118;-88
2021/07/30 11:09:02;;;;;;;19.70;6.00;;;28.90;78.10;;;;;;4941897;28;20034;-88
2021/07/30 11:11:46;;;;;;;8.75;2.90;;;29.10;77.90;;;;;;4972270;28;20019;-88
2021/07/30 11:14:23;;;;;;;8.73;2.60;;;29.30;76.10;;;;;;4933033;29;20027;-87
2021/07/30 11:17:06;;;;;;;11.82;2.67;;;29.40;75.50;;;;;;4948317;29;20019;-86
2021/07/30 11:19:33;;;;;;;5.32;2.10;;;29.40;75.60;;;;;;4935127;29;20042;-89
2021/07/30 11:22:01;;;;;;;12.02;2.90;;;29.40;74.80;;;;;;4951885;28;20023;-88
2021/07/30 11:24:26;;;;;;;6.78;2.33;;;28.80;74.90;;;;;;4963183;28;20031;-87
2021/07/30 11:26:52;;;;;;;6.78;2.40;;;28.50;75.00;;;;;;4940132;29;20031;-91
2021/07/30 11:29:22;;;;;;;14.55;5.00;;;28.50;74.90;;;;;;4944211;28;20509;-88
2021/07/30 11:31:56;;;;;;;7.70;3.03;;;28.90;74.20;;;;;;4971418;28;20668;-88
2021/07/30 11:34:26;;;;;;;12.20;2.95;;;28.80;74.10;;;;;;4945152;29;20103;-84
2021/07/30 11:36:52;;;;;;;10.70;3.65;;;28.50;72.90;;;;;;4953483;29;20027;-87
2021/07/30 11:39:18;;;;;;;11.27;3.05;;;28.80;73.70;;;;;;4969929;28;20034;-83
2021/07/30 11:41:51;;;;;;;10.35;2.22;;;28.90;73.70;;;;;;4971428;28;20406;-84
2021/07/30 11:44:18;;;;;;;8.93;2.92;;;28.90;74.90;;;;;;4963078;28;20042;-86
2021/07/30 11:46:58;;;;;;;5.25;2.22;;;28.50;74.00;;;;;;4950855;28;20086;-83
2021/07/30 11:49:32;;;;;;;11.07;2.60;;;28.40;73.80;;;;;;4935345;29;20046;-86
2021/07/30 11:51:59;;;;;;;8.85;2.88;;;28.80;75.90;;;;;;4952664;28;20027;-82
2021/07/30 11:54:51;;;;;;;11.50;3.10;;;28.70;75.10;;;;;;4959972;28;20054;-81
2021/07/30 11:57:27;;;;;;;14.32;3.90;;;27.20;80.60;;;;;;4967939;28;20142;-83
2021/07/30 11:59:53;;;;;;;14.15;3.30;;;27.10;79.80;;;;;;4970123;28;20050;-84
2021/07/30 12:02:18;;;;;;;8.57;3.05;;;27.00;78.20;;;;;;4953850;28;20538;-85
2021/07/30 12:04:58;;;;;;;12.07;2.70;;;26.30;80.30;;;;;;4962470;28;20418;-84
2021/07/30 12:07:37;;;;;;;8.88;2.70;;;26.20;79.70;;;;;;4938989;28;20058;-84
2021/07/30 12:10:09;;;;;;;6.75;2.28;;;26.40;79.30;;;;;;4923109;29;20062;-85
2021/07/30 12:12:43;;;;;;;8.02;2.42;;;26.50;79.40;;;;;;4952017;28;20347;-83
2021/07/30 12:15:10;;;;;;;12.02;2.72;;;26.60;79.40;;;;;;4954022;28;20039;-82
2021/07/30 12:17:36;;;;;;;15.95;2.67;;;26.60;79.10;;;;;;4968371;28;20026;-83
2021/07/30 12:20:05;;;;;;;12.18;2.08;;;27.00;80.10;;;;;;4971662;28;20042;-82
2021/07/30 12:22:40;;;;;;;9.55;2.55;;;26.70;78.00;;;;;;4967957;28;20026;-86
2021/07/30 12:25:09;;;;;;;18.08;2.45;;;26.00;79.20;;;;;;4917821;28;20027;-85
2021/07/30 12:27:35;;;;;;;8.95;2.45;;;25.00;81.90;;;;;;4934946;28;20565;-86
2021/07/30 12:30:00;;;;;;;15.60;2.75;;;25.70;80.90;;;;;;4954277;28;20143;-83
2021/07/30 12:32:38;;;;;;;15.43;2.40;;;26.50;80.60;;;;;;4935239;29;20057;-82
2021/07/30 12:35:11;;;;;;;9.88;1.90;;;26.70;79.00;;;;;;4933600;29;20035;-86
2021/07/30 12:37:38;;;;;;;10.77;2.30;;;26.50;79.60;;;;;;4952269;28;20086;-83
2021/07/30 12:40:09;;;;;;;16.10;2.10;;;26.30;81.40;;;;;;4954332;28;20035;-87
2021/07/30 12:42:36;;;;;;;12.27;4.78;;;26.60;80.70;;;;;;4952839;28;20046;-87
2021/07/30 12:45:12;;;;;;;8.57;1.80;;;26.50;77.90;;;;;;4941422;28;20032;-83
2021/07/30 12:47:58;;;;;;;7.68;1.65;;;26.10;77.00;;;;;;4971668;28;20089;-81
2021/07/30 12:50:27;;;;;;;7.80;2.80;;;24.60;82.00;;;;;;4947812;28;20035;-82
2021/07/30 12:53:07;;;;;;;5.55;1.70;;;24.90;81.00;;;;;;4951742;28;21013;-85
2021/07/30 12:55:57;;;;;;;6.13;1.60;;;24.90;79.90;;;;;;4968532;28;20027;-85
2021/07/30 12:58:37;;;;;;;12.38;2.25;;;24.50;81.80;;;;;;4970997;28;20058;-81
2021/07/30 13:01:12;;;;;;;8.15;1.90;;;23.40;85.40;;;;;;4957793;28;20102;-83
2021/07/30 13:03:44;;;;;;;14.60;2.13;;;23.70;86.00;;;;;;4961561;28;20081;-85
2021/07/30 13:06:18;;;;;;;11.48;2.65;;;24.20;86.80;;;;;;4969925;28;20106;-82
2021/07/30 13:08:46;;;;;;;10.65;1.65;;;24.60;84.40;;;;;;4938227;29;20118;-82
2021/07/30 13:11:17;;;;;;;19.80;2.00;;;24.30;84.70;;;;;;4956628;28;20073;-82
2021/07/30 13:13:43;;;;;;;6.78;1.58;;;24.00;85.00;;;;;;4974248;28;20450;-85
2021/07/30 13:16:10;;;;;;;10.88;2.00;;;23.60;83.80;;;;;;4964125;28;20174;-85